Time,TemperatureF,DewpointF,PressureIn,WindDirection,WindDirectionDegrees,WindSpeedMPH,WindSpeedGustMPH,Humidity,HourlyPrecipIn,Conditions,Clouds,dailyrainin,SoftwareType,DateUTC
2013-03-02 00:04:00,22.3,16.5,30.29,North,0,3.6,4.0,78,0.00,,,0.00,WUHU216HW,2013-03-02 05:04:00,
2013-03-02 00:09:00,22.1,16.3,30.29,North,0,3.4,3.8,78,0.00,,,0.00,WUHU216HW,2013-03-02 05:09:00,
2013-03-02 00:14:00,22.1,16.3,30.29,NNW,338,4.5,4.5,78,0.00,,,0.00,WUHU216HW,2013-03-02 05:14:00,
2013-03-02 00:19:00,22.0,16.1,30.29,North,0,3.4,5.4,78,0.00,,,0.00,WUHU216HW,2013-03-02 05:19:00,
2013-03-02 00:24:00,22.1,16.3,30.29,North,0,3.4,5.4,78,0.00,,,0.00,WUHU216HW,2013-03-02 05:24:00,
2013-03-02 00:29:00,22.0,16.1,30.29,NNW,338,4.7,5.1,78,0.00,,,0.00,WUHU216HW,2013-03-02 05:29:00,
2013-03-02 00:34:00,22.0,16.1,30.28,North,0,3.8,4.9,78,0.00,,,0.00,WUHU216HW,2013-03-02 05:34:00,
2013-03-02 00:40:00,22.0,16.1,30.28,North,0,3.8,4.9,78,0.00,,,0.00,WUHU216HW,2013-03-02 05:40:00,
2013-03-02 00:45:00,22.0,16.5,30.28,North,0,5.4,5.4,79,0.00,,,0.00,WUHU216HW,2013-03-02 05:45:00,
2013-03-02 00:50:00,22.0,16.5,30.28,North,0,5.4,5.4,79,0.00,,,0.00,WUHU216HW,2013-03-02 05:50:00,
2013-03-02 00:55:00,21.8,16.3,30.28,North,0,3.8,5.4,79,0.00,,,0.00,WUHU216HW,2013-03-02 05:55:00,
2013-03-02 01:01:00,21.6,16.1,30.28,NNW,338,4.5,5.4,79,0.00,,,0.00,WUHU216HW,2013-03-02 06:01:00,
2013-03-02 01:06:00,21.6,16.1,30.28,North,0,6.0,6.0,79,0.00,,,0.00,WUHU216HW,2013-03-02 06:06:00,
2013-03-02 01:11:00,21.4,15.9,30.28,North,0,3.4,6.0,79,0.00,,,0.00,WUHU216HW,2013-03-02 06:11:00,
2013-03-02 01:16:00,21.4,15.9,30.28,North,0,2.9,4.9,79,0.00,,,0.00,WUHU216HW,2013-03-02 06:16:00,
2013-03-02 01:21:00,21.2,15.8,30.29,North,0,3.4,4.9,79,0.00,,,0.00,WUHU216HW,2013-03-02 06:21:00,
2013-03-02 01:26:00,21.2,15.8,30.28,North,0,4.0,5.4,79,0.00,,,0.00,WUHU216HW,2013-03-02 06:26:00,
2013-03-02 01:31:00,21.1,15.6,30.28,North,0,4.7,5.8,79,0.00,,,0.00,WUHU216HW,2013-03-02 06:31:00,
2013-03-02 01:36:00,21.1,15.6,30.28,North,0,2.0,5.8,79,0.00,,,0.00,WUHU216HW,2013-03-02 06:36:00,
2013-03-02 01:41:00,20.7,15.2,30.29,North,0,5.4,5.4,79,0.00,,,0.00,WUHU216HW,2013-03-02 06:41:00,
2013-03-02 01:46:00,20.7,15.2,30.29,North,0,2.0,5.4,79,0.00,,,0.00,WUHU216HW,2013-03-02 06:46:00,
2013-03-02 01:51:00,20.5,15.0,30.29,North,0,1.8,4.0,79,0.00,,,0.00,WUHU216HW,2013-03-02 06:51:00,
2013-03-02 01:57:00,20.3,14.9,30.29,North,0,2.9,4.0,79,0.00,,,0.00,WUHU216HW,2013-03-02 06:57:00,
2013-03-02 02:02:00,20.2,14.9,30.28,North,0,4.3,4.3,80,0.00,,,0.00,WUHU216HW,2013-03-02 07:02:00,
2013-03-02 02:07:00,20.0,14.8,30.29,North,0,2.9,4.3,80,0.00,,,0.00,WUHU216HW,2013-03-02 07:07:00,
2013-03-02 02:12:00,19.8,14.6,30.29,North,0,3.8,4.0,80,0.00,,,0.00,WUHU216HW,2013-03-02 07:12:00,
2013-03-02 02:19:00,19.8,14.6,30.29,North,0,3.1,4.3,80,0.00,,,0.00,WUHU216HW,2013-03-02 07:19:00,
2013-03-02 02:25:00,19.4,14.2,30.28,North,0,3.8,5.1,80,0.00,,,0.00,WUHU216HW,2013-03-02 07:25:00,
2013-03-02 02:30:00,19.4,14.2,30.28,NNE,23,4.0,4.0,80,0.00,,,0.00,WUHU216HW,2013-03-02 07:30:00,
2013-03-02 02:35:00,19.4,14.2,30.28,NNE,23,4.3,4.3,80,0.00,,,0.00,WUHU216HW,2013-03-02 07:35:00,
2013-03-02 02:40:00,19.3,14.0,30.28,NNE,23,3.6,4.3,80,0.00,,,0.00,WUHU216HW,2013-03-02 07:40:00,
2013-03-02 02:45:00,19.3,14.0,30.28,NNE,23,2.9,4.3,80,0.00,,,0.00,WUHU216HW,2013-03-02 07:45:00,
2013-03-02 02:50:00,19.1,13.9,30.28,NNE,23,3.1,3.8,80,0.00,,,0.00,WUHU216HW,2013-03-02 07:50:00,
2013-03-02 02:55:00,19.1,13.9,30.28,NNE,23,3.4,3.8,80,0.00,,,0.00,WUHU216HW,2013-03-02 07:55:00,
2013-03-02 03:05:00,18.9,14.0,30.28,North,0,3.8,4.5,81,0.00,,,0.00,WUHU216HW,2013-03-02 08:05:00,
2013-03-02 03:12:00,18.4,13.1,30.28,North,0,2.2,2.5,80,0.00,,,0.00,WUHU216HW,2013-03-02 08:12:00,
2013-03-02 03:17:00,18.2,12.7,30.28,North,0,2.9,4.0,79,0.00,,,0.00,WUHU216HW,2013-03-02 08:17:00,
2013-03-02 03:22:00,18.2,12.7,30.28,North,0,3.8,4.0,79,0.00,,,0.00,WUHU216HW,2013-03-02 08:22:00,
2013-03-02 03:27:00,18.0,12.5,30.27,North,0,3.4,4.0,79,0.00,,,0.00,WUHU216HW,2013-03-02 08:27:00,
2013-03-02 03:32:00,17.8,12.3,30.27,North,0,1.6,4.0,79,0.00,,,0.00,WUHU216HW,2013-03-02 08:32:00,
2013-03-02 03:38:00,17.6,12.2,30.27,North,0,1.8,3.4,79,0.00,,,0.00,WUHU216HW,2013-03-02 08:38:00,
2013-03-02 03:43:00,17.8,12.6,30.27,NNW,338,2.0,2.0,80,0.00,,,0.00,WUHU216HW,2013-03-02 08:43:00,
2013-03-02 03:48:00,17.8,12.6,30.27,NNW,338,1.8,2.5,80,0.00,,,0.00,WUHU216HW,2013-03-02 08:48:00,
2013-03-02 03:53:00,17.8,12.6,30.27,NNW,338,1.6,2.5,80,0.00,,,0.00,WUHU216HW,2013-03-02 08:53:00,
2013-03-02 03:58:00,17.6,12.4,30.27,NNW,338,2.0,2.0,80,0.00,,,0.00,WUHU216HW,2013-03-02 08:58:00,
2013-03-02 04:03:00,17.6,12.7,30.27,NNW,338,2.0,2.2,81,0.00,,,0.00,WUHU216HW,2013-03-02 09:03:00,
2013-03-02 04:08:00,17.6,12.7,30.27,North,0,1.6,2.5,81,0.00,,,0.00,WUHU216HW,2013-03-02 09:08:00,
2013-03-02 04:13:00,17.6,12.4,30.27,North,0,2.2,2.5,80,0.00,,,0.00,WUHU216HW,2013-03-02 09:13:00,
2013-03-02 04:18:00,17.6,12.4,30.27,North,0,2.5,2.5,80,0.00,,,0.00,WUHU216HW,2013-03-02 09:18:00,
2013-03-02 04:23:00,17.6,12.7,30.27,NNW,338,2.5,2.7,81,0.00,,,0.00,WUHU216HW,2013-03-02 09:23:00,
2013-03-02 04:28:00,17.6,12.4,30.27,North,0,1.6,2.9,80,0.00,,,0.00,WUHU216HW,2013-03-02 09:28:00,
2013-03-02 04:33:00,17.6,12.7,30.27,North,0,2.5,2.9,81,0.00,,,0.00,WUHU216HW,2013-03-02 09:33:00,
2013-03-02 04:38:00,17.5,12.5,30.27,NNW,338,2.2,3.1,81,0.00,,,0.00,WUHU216HW,2013-03-02 09:38:00,
2013-03-02 04:43:00,17.3,12.3,30.27,North,0,1.6,3.1,81,0.00,,,0.00,WUHU216HW,2013-03-02 09:43:00,
2013-03-02 04:48:00,17.3,12.3,30.27,North,0,2.2,3.4,81,0.00,,,0.00,WUHU216HW,2013-03-02 09:48:00,
2013-03-02 04:53:00,17.1,12.3,30.26,North,0,2.7,4.0,81,0.00,,,0.00,WUHU216HW,2013-03-02 09:53:00,
2013-03-02 04:58:00,16.9,12.1,30.26,North,0,2.5,4.0,81,0.00,,,0.00,WUHU216HW,2013-03-02 09:58:00,
2013-03-02 05:03:00,16.9,12.1,30.26,North,0,2.0,2.5,81,0.00,,,0.00,WUHU216HW,2013-03-02 10:03:00,
2013-03-02 05:08:00,16.9,12.1,30.26,North,0,1.8,2.5,81,0.00,,,0.00,WUHU216HW,2013-03-02 10:08:00,
2013-03-02 05:14:00,16.7,11.9,30.26,NNW,338,2.0,2.7,81,0.00,,,0.00,WUHU216HW,2013-03-02 10:14:00,
2013-03-02 05:19:00,16.7,12.2,30.27,North,0,2.5,3.4,82,0.00,,,0.00,WUHU216HW,2013-03-02 10:19:00,
2013-03-02 05:24:00,16.7,12.2,30.26,NNW,338,2.2,2.5,82,0.00,,,0.00,WUHU216HW,2013-03-02 10:24:00,
2013-03-02 05:29:00,16.7,12.4,30.26,NNW,338,2.5,2.7,83,0.00,,,0.00,WUHU216HW,2013-03-02 10:29:00,
2013-03-02 05:34:00,16.7,12.4,30.27,North,0,2.0,2.9,83,0.00,,,0.00,WUHU216HW,2013-03-02 10:34:00,
2013-03-02 05:39:00,16.6,12.3,30.27,NNW,338,1.8,2.9,83,0.00,,,0.00,WUHU216HW,2013-03-02 10:39:00,
2013-03-02 05:44:00,16.6,12.3,30.27,North,0,1.8,2.7,83,0.00,,,0.00,WUHU216HW,2013-03-02 10:44:00,
2013-03-02 05:49:00,16.6,12.3,30.27,North,0,2.2,2.9,83,0.00,,,0.00,WUHU216HW,2013-03-02 10:49:00,
2013-03-02 05:54:00,16.4,12.3,30.26,NNW,338,2.2,2.9,84,0.00,,,0.00,WUHU216HW,2013-03-02 10:54:00,
2013-03-02 05:59:00,16.4,12.3,30.26,North,0,2.5,3.6,84,0.00,,,0.00,WUHU216HW,2013-03-02 10:59:00,
2013-03-02 06:04:00,16.4,12.3,30.27,NNW,338,3.4,3.6,84,0.00,,,0.00,WUHU216HW,2013-03-02 11:04:00,
2013-03-02 06:09:00,16.2,12.2,30.27,North,0,2.5,3.4,84,0.00,,,0.00,WUHU216HW,2013-03-02 11:09:00,
2013-03-02 06:14:00,16.2,12.4,30.27,NNW,338,3.1,3.1,85,0.00,,,0.00,WUHU216HW,2013-03-02 11:14:00,
2013-03-02 06:20:00,16.2,12.4,30.27,North,0,2.7,3.4,85,0.00,,,0.00,WUHU216HW,2013-03-02 11:20:00,
2013-03-02 06:25:00,16.2,12.4,30.27,North,0,2.9,3.4,85,0.00,,,0.00,WUHU216HW,2013-03-02 11:25:00,
2013-03-02 06:30:00,16.2,12.4,30.27,NNW,338,1.8,2.9,85,0.00,,,0.00,WUHU216HW,2013-03-02 11:30:00,
2013-03-02 06:35:00,16.0,12.5,30.27,North,0,2.2,2.7,86,0.00,,,0.00,WUHU216HW,2013-03-02 11:35:00,
2013-03-02 06:40:00,16.0,12.5,30.27,NNW,338,2.0,3.1,86,0.00,,,0.00,WUHU216HW,2013-03-02 11:40:00,
2013-03-02 06:45:00,15.8,12.3,30.27,North,0,2.0,3.1,86,0.00,,,0.00,WUHU216HW,2013-03-02 11:45:00,
2013-03-02 06:50:00,15.7,11.9,30.27,North,0,2.0,2.7,85,0.00,,,0.00,WUHU216HW,2013-03-02 11:50:00,
2013-03-02 06:56:00,15.7,11.9,30.27,North,0,3.8,3.8,85,0.00,,,0.00,WUHU216HW,2013-03-02 11:56:00,
2013-03-02 07:01:00,15.8,12.6,30.28,NNW,338,3.6,4.7,87,0.00,,,0.00,WUHU216HW,2013-03-02 12:01:00,
2013-03-02 07:06:00,15.8,12.6,30.27,North,0,4.0,5.1,87,0.00,,,0.00,WUHU216HW,2013-03-02 12:06:00,
2013-03-02 07:11:00,15.8,12.6,30.27,North,0,4.5,5.1,87,0.00,,,0.00,WUHU216HW,2013-03-02 12:11:00,
2013-03-02 07:16:00,15.8,12.3,30.28,North,0,4.7,4.9,86,0.00,,,0.00,WUHU216HW,2013-03-02 12:16:00,
2013-03-02 07:21:00,15.8,12.6,30.28,North,0,4.7,4.7,87,0.00,,,0.00,WUHU216HW,2013-03-02 12:21:00,
2013-03-02 07:26:00,15.8,12.3,30.28,North,0,2.9,4.7,86,0.00,,,0.00,WUHU216HW,2013-03-02 12:26:00,
2013-03-02 07:31:00,15.7,12.2,30.28,North,0,3.4,4.7,86,0.00,,,0.00,WUHU216HW,2013-03-02 12:31:00,
2013-03-02 07:36:00,15.7,12.2,30.28,North,0,3.4,4.5,86,0.00,,,0.00,WUHU216HW,2013-03-02 12:36:00,
2013-03-02 07:41:00,15.7,12.2,30.28,North,0,3.4,5.4,86,0.00,,,0.00,WUHU216HW,2013-03-02 12:41:00,
2013-03-02 07:46:00,15.7,12.2,30.28,North,0,4.7,5.4,86,0.00,,,0.00,WUHU216HW,2013-03-02 12:46:00,
2013-03-02 07:51:00,15.7,12.2,30.28,North,0,3.4,6.3,86,0.00,,,0.00,WUHU216HW,2013-03-02 12:51:00,
2013-03-02 07:56:00,15.8,12.3,30.29,North,0,3.8,6.3,86,0.00,,,0.00,WUHU216HW,2013-03-02 12:56:00,
2013-03-02 08:01:00,15.8,12.3,30.28,North,0,2.5,4.0,86,0.00,,,0.00,WUHU216HW,2013-03-02 13:01:00,
2013-03-02 08:06:00,16.2,12.7,30.29,North,0,6.3,6.3,86,0.00,,,0.00,WUHU216HW,2013-03-02 13:06:00,
2013-03-02 08:11:00,16.4,12.9,30.29,North,0,4.0,6.3,86,0.00,,,0.00,WUHU216HW,2013-03-02 13:11:00,
2013-03-02 08:16:00,16.6,12.8,30.29,North,0,4.7,5.1,85,0.00,,,0.00,WUHU216HW,2013-03-02 13:16:00,
2013-03-02 08:21:00,16.7,12.9,30.29,North,0,3.6,5.4,85,0.00,,,0.00,WUHU216HW,2013-03-02 13:21:00,
2013-03-02 08:26:00,16.9,12.8,30.29,North,0,2.7,5.6,84,0.00,,,0.00,WUHU216HW,2013-03-02 13:26:00,
2013-03-02 08:31:00,17.3,13.1,30.29,North,0,4.5,5.6,84,0.00,,,0.00,WUHU216HW,2013-03-02 13:31:00,
2013-03-02 08:36:00,17.5,13.1,30.29,NNW,338,4.0,4.5,83,0.00,,,0.00,WUHU216HW,2013-03-02 13:36:00,
2013-03-02 08:42:00,17.6,13.2,30.29,North,0,3.8,7.6,83,0.00,,,0.00,WUHU216HW,2013-03-02 13:42:00,
2013-03-02 08:47:00,18.0,13.3,30.29,North,0,4.9,7.6,82,0.00,,,0.00,WUHU216HW,2013-03-02 13:47:00,
2013-03-02 08:52:00,18.4,14.0,30.29,North,0,6.7,6.7,83,0.00,,,0.00,WUHU216HW,2013-03-02 13:52:00,
2013-03-02 08:57:00,18.5,13.9,30.29,North,0,6.3,6.9,82,0.00,,,0.00,WUHU216HW,2013-03-02 13:57:00,
2013-03-02 09:02:00,18.9,14.0,30.29,North,0,6.7,6.9,81,0.00,,,0.00,WUHU216HW,2013-03-02 14:02:00,
2013-03-02 09:07:00,19.1,13.9,30.29,North,0,6.9,11.4,80,0.00,,,0.00,WUHU216HW,2013-03-02 14:07:00,
2013-03-02 09:12:00,19.3,14.0,30.29,North,0,8.3,11.4,80,0.00,,,0.00,WUHU216HW,2013-03-02 14:12:00,
2013-03-02 09:17:00,19.4,14.0,30.29,North,0,6.3,10.5,79,0.00,,,0.00,WUHU216HW,2013-03-02 14:17:00,
2013-03-02 09:22:00,19.6,13.8,30.29,North,0,8.9,13.4,78,0.00,,,0.00,WUHU216HW,2013-03-02 14:22:00,
2013-03-02 09:27:00,19.8,14.0,30.29,North,0,10.7,17.2,78,0.00,,,0.00,WUHU216HW,2013-03-02 14:27:00,
2013-03-02 09:32:00,19.8,14.0,30.29,North,0,12.1,17.2,78,0.00,,,0.00,WUHU216HW,2013-03-02 14:32:00,
2013-03-02 09:37:00,19.8,14.0,30.29,North,0,10.7,15.7,78,0.00,,,0.00,WUHU216HW,2013-03-02 14:37:00,
2013-03-02 09:42:00,20.2,14.3,30.29,North,0,8.1,12.8,78,0.00,,,0.00,WUHU216HW,2013-03-02 14:42:00,
2013-03-02 09:47:00,20.3,14.5,30.29,North,0,12.1,14.1,78,0.00,,,0.00,WUHU216HW,2013-03-02 14:47:00,
2013-03-02 09:52:00,20.3,14.2,30.29,North,0,13.6,14.1,77,0.00,,,0.00,WUHU216HW,2013-03-02 14:52:00,
2013-03-02 09:57:00,20.3,14.2,30.29,North,0,8.3,13.6,77,0.00,,,0.00,WUHU216HW,2013-03-02 14:57:00,
2013-03-02 10:02:00,20.9,15.0,30.29,North,0,4.7,13.4,78,0.00,,,0.00,WUHU216HW,2013-03-02 15:02:00,
2013-03-02 10:07:00,21.1,14.6,30.29,North,0,7.6,10.1,76,0.00,,,0.00,WUHU216HW,2013-03-02 15:07:00,
2013-03-02 10:12:00,21.1,14.6,30.28,North,0,11.2,12.3,76,0.00,,,0.00,WUHU216HW,2013-03-02 15:12:00,
2013-03-02 10:17:00,21.2,15.1,30.29,North,0,12.5,12.5,77,0.00,,,0.00,WUHU216HW,2013-03-02 15:17:00,
2013-03-02 10:22:00,21.6,15.5,30.28,North,0,8.5,14.3,77,0.00,,,0.00,WUHU216HW,2013-03-02 15:22:00,
2013-03-02 10:27:00,21.4,15.3,30.28,North,0,9.2,14.3,77,0.00,,,0.00,WUHU216HW,2013-03-02 15:27:00,
2013-03-02 10:32:00,21.6,15.5,30.28,North,0,10.1,14.3,77,0.00,,,0.00,WUHU216HW,2013-03-02 15:32:00,
2013-03-02 10:37:00,21.6,15.5,30.28,North,0,10.1,12.8,77,0.00,,,0.00,WUHU216HW,2013-03-02 15:37:00,
2013-03-02 11:05:00,22.3,14.7,30.28,NNW,338,7.8,11.0,72,0.00,,,0.00,WUHU216HW,2013-03-02 16:05:00,
2013-03-02 11:10:00,22.0,15.0,30.28,NNW,338,6.7,11.4,74,0.00,,,0.00,WUHU216HW,2013-03-02 16:10:00,
2013-03-02 11:15:00,22.3,15.6,30.28,NNW,338,7.6,11.4,75,0.00,,,0.00,WUHU216HW,2013-03-02 16:15:00,
2013-03-02 11:20:00,22.7,15.7,30.28,North,0,9.2,11.4,74,0.00,,,0.00,WUHU216HW,2013-03-02 16:20:00,
2013-03-02 11:25:00,22.5,15.1,30.28,North,0,10.5,11.4,73,0.00,,,0.00,WUHU216HW,2013-03-02 16:25:00,
2013-03-02 11:30:00,22.5,15.1,30.28,NNW,338,8.5,10.5,73,0.00,,,0.00,WUHU216HW,2013-03-02 16:30:00,
2013-03-02 11:35:00,22.9,15.5,30.28,North,0,8.1,8.9,73,0.00,,,0.00,WUHU216HW,2013-03-02 16:35:00,
2013-03-02 11:40:00,22.7,15.3,30.28,North,0,6.9,8.5,73,0.00,,,0.00,WUHU216HW,2013-03-02 16:40:00,
2013-03-02 11:45:00,22.7,15.7,30.28,North,0,16.6,16.6,74,0.00,,,0.00,WUHU216HW,2013-03-02 16:45:00,
2013-03-02 11:50:00,22.7,15.7,30.28,North,0,11.0,16.6,74,0.00,,,0.00,WUHU216HW,2013-03-02 16:50:00,
2013-03-02 11:55:00,22.9,15.9,30.28,North,0,11.0,15.4,74,0.00,,,0.00,WUHU216HW,2013-03-02 16:55:00,
2013-03-02 12:00:00,23.2,15.8,30.28,NNW,338,8.5,13.2,73,0.00,,,0.00,WUHU216HW,2013-03-02 17:00:00,
2013-03-02 12:05:00,23.4,16.0,30.28,North,0,14.3,14.3,73,0.00,,,0.00,WUHU216HW,2013-03-02 17:05:00,
2013-03-02 12:10:00,23.6,15.8,30.28,North,0,11.4,15.2,72,0.00,,,0.00,WUHU216HW,2013-03-02 17:10:00,
2013-03-02 12:15:00,24.1,16.0,30.28,North,0,7.6,15.2,71,0.00,,,0.00,WUHU216HW,2013-03-02 17:15:00,
2013-03-02 12:20:00,23.9,15.6,30.28,North,0,6.9,14.1,70,0.00,,,0.00,WUHU216HW,2013-03-02 17:20:00,
2013-03-02 12:25:00,23.8,15.8,30.28,North,0,8.5,9.8,71,0.00,,,0.00,WUHU216HW,2013-03-02 17:25:00,
2013-03-02 12:30:00,23.4,15.4,30.28,NNW,338,6.3,9.6,71,0.00,,,0.00,WUHU216HW,2013-03-02 17:30:00,
2013-03-02 12:35:00,23.6,15.6,30.27,NNW,338,4.7,8.9,71,0.00,,,0.00,WUHU216HW,2013-03-02 17:35:00,
2013-03-02 12:40:00,23.9,15.9,30.27,NW,315,6.0,8.9,71,0.00,,,0.00,WUHU216HW,2013-03-02 17:40:00,
2013-03-02 12:45:00,24.1,15.8,30.27,North,0,6.3,8.5,70,0.00,,,0.00,WUHU216HW,2013-03-02 17:45:00,
2013-03-02 12:50:00,24.7,16.2,30.27,North,0,8.3,8.9,70,0.00,,,0.00,WUHU216HW,2013-03-02 17:50:00,
2013-03-02 12:55:00,25.0,16.6,30.27,NNW,338,8.7,8.9,70,0.00,,,0.00,WUHU216HW,2013-03-02 17:55:00,
2013-03-02 13:00:00,24.8,16.0,30.27,North,0,7.2,10.3,69,0.00,,,0.00,WUHU216HW,2013-03-02 18:00:00,
2013-03-02 13:05:00,24.8,16.4,30.26,NNW,338,8.3,10.3,70,0.00,,,0.00,WUHU216HW,2013-03-02 18:05:00,
2013-03-02 13:10:00,24.8,16.0,30.26,NNW,338,7.2,9.8,69,0.00,,,0.00,WUHU216HW,2013-03-02 18:10:00,
2013-03-02 13:15:00,24.5,16.0,30.26,NW,315,6.5,9.8,70,0.00,,,0.00,WUHU216HW,2013-03-02 18:15:00,
2013-03-02 13:20:00,24.8,16.4,30.26,NNW,338,7.8,9.8,70,0.00,,,0.00,WUHU216HW,2013-03-02 18:20:00,
2013-03-02 13:25:00,25.0,16.6,30.26,NNW,338,6.3,7.8,70,0.00,,,0.00,WUHU216HW,2013-03-02 18:25:00,
2013-03-02 13:30:00,25.4,16.6,30.26,North,0,12.1,12.1,69,0.00,,,0.00,WUHU216HW,2013-03-02 18:30:00,
2013-03-02 13:35:00,25.6,16.4,30.26,North,0,11.0,12.5,68,0.00,,,0.00,WUHU216HW,2013-03-02 18:35:00,
2013-03-02 13:40:00,25.7,16.9,30.25,North,0,8.9,12.5,69,0.00,,,0.00,WUHU216HW,2013-03-02 18:40:00,
2013-03-02 13:45:00,26.3,17.8,30.25,North,0,5.6,8.9,70,0.00,,,0.00,WUHU216HW,2013-03-02 18:45:00,
2013-03-02 13:50:00,27.0,17.5,30.25,NNW,338,7.2,13.4,67,0.00,,,0.00,WUHU216HW,2013-03-02 18:50:00,
2013-03-02 13:55:00,26.6,17.1,30.25,NNW,338,5.8,13.4,67,0.00,,,0.00,WUHU216HW,2013-03-02 18:55:00,
2013-03-02 14:00:00,26.3,17.1,30.25,NNW,338,5.6,11.4,68,0.00,,,0.00,WUHU216HW,2013-03-02 19:00:00,
2013-03-02 14:05:00,26.1,16.6,30.25,North,0,5.1,8.3,67,0.00,,,0.00,WUHU216HW,2013-03-02 19:05:00,
2013-03-02 14:10:00,26.1,16.6,30.25,North,0,5.1,5.1,67,0.00,,,0.00,WUHU216HW,2013-03-02 19:10:00,
2013-03-02 14:36:00,26.5,16.6,30.24,North,0,6.9,11.2,66,0.00,,,0.00,WUHU216HW,2013-03-02 19:36:00,
2013-03-02 14:41:00,26.5,16.9,30.24,North,0,12.3,12.3,67,0.00,,,0.00,WUHU216HW,2013-03-02 19:41:00,
2013-03-02 14:46:00,26.6,16.7,30.24,North,0,10.5,13.2,66,0.00,,,0.00,WUHU216HW,2013-03-02 19:46:00,
2013-03-02 14:51:00,26.8,17.3,30.24,North,0,4.0,13.2,67,0.00,,,0.00,WUHU216HW,2013-03-02 19:51:00,
2013-03-02 14:56:00,27.0,17.5,30.24,NNW,338,5.6,12.8,67,0.00,,,0.00,WUHU216HW,2013-03-02 19:56:00,
2013-03-02 15:01:00,26.8,16.9,30.24,North,0,9.8,9.8,66,0.00,,,0.00,WUHU216HW,2013-03-02 20:01:00,
2013-03-02 15:06:00,26.6,16.7,30.24,North,0,8.3,9.8,66,0.00,,,0.00,WUHU216HW,2013-03-02 20:06:00,
2013-03-02 15:11:00,27.0,17.1,30.24,North,0,6.0,8.3,66,0.00,,,0.00,WUHU216HW,2013-03-02 20:11:00,
2013-03-02 15:16:00,27.0,17.1,30.23,North,0,4.3,7.6,66,0.00,,,0.00,WUHU216HW,2013-03-02 20:16:00,
2013-03-02 15:21:00,27.2,17.3,30.24,NNW,338,4.7,7.6,66,0.00,,,0.00,WUHU216HW,2013-03-02 20:21:00,
2013-03-02 15:26:00,27.4,17.5,30.24,NNW,338,3.4,6.3,66,0.00,,,0.00,WUHU216HW,2013-03-02 20:26:00,
2013-03-02 15:31:00,27.7,17.1,30.23,North,0,8.5,10.3,64,0.00,,,0.00,WUHU216HW,2013-03-02 20:31:00,
2013-03-02 15:36:00,27.5,16.9,30.23,North,0,8.1,10.3,64,0.00,,,0.00,WUHU216HW,2013-03-02 20:36:00,
2013-03-02 15:41:00,27.5,16.9,30.23,North,0,8.1,8.1,64,0.00,,,0.00,WUHU216HW,2013-03-02 20:41:00,
2013-03-02 16:05:00,28.4,17.8,30.23,North,0,5.6,8.5,64,0.00,,,0.00,WUHU216HW,2013-03-02 21:05:00,
2013-03-02 16:10:00,28.4,17.8,30.22,NNE,23,9.6,9.6,64,0.00,,,0.00,WUHU216HW,2013-03-02 21:10:00,
2013-03-02 16:15:00,28.4,17.1,30.22,NNE,23,4.9,9.6,62,0.00,,,0.00,WUHU216HW,2013-03-02 21:15:00,
2013-03-02 16:20:00,28.8,17.8,30.22,NNE,23,4.3,8.5,63,0.00,,,0.00,WUHU216HW,2013-03-02 21:20:00,
2013-03-02 16:25:00,28.8,17.8,30.22,North,0,1.6,5.4,63,0.00,,,0.00,WUHU216HW,2013-03-02 21:25:00,
2013-03-02 16:30:00,29.2,18.1,30.22,NNW,338,2.5,4.7,63,0.00,,,0.00,WUHU216HW,2013-03-02 21:30:00,
2013-03-02 16:35:00,29.2,17.7,30.22,North,0,2.7,7.4,62,0.00,,,0.00,WUHU216HW,2013-03-02 21:35:00,
2013-03-02 16:40:00,29.2,17.7,30.22,North,0,3.6,7.4,62,0.00,,,0.00,WUHU216HW,2013-03-02 21:40:00,
2013-03-02 16:45:00,29.0,17.6,30.22,North,0,2.0,5.4,62,0.00,,,0.00,WUHU216HW,2013-03-02 21:45:00,
2013-03-02 16:50:00,29.0,17.6,30.22,North,0,2.5,5.4,62,0.00,,,0.00,WUHU216HW,2013-03-02 21:50:00,
2013-03-02 16:55:00,29.0,17.6,30.22,NNW,338,2.2,4.7,62,0.00,,,0.00,WUHU216HW,2013-03-02 21:55:00,
2013-03-02 17:00:00,29.2,17.7,30.22,North,0,2.5,4.7,62,0.00,,,0.00,WUHU216HW,2013-03-02 22:00:00,
2013-03-02 17:05:00,29.2,17.7,30.22,North,0,1.8,4.0,62,0.00,,,0.00,WUHU216HW,2013-03-02 22:05:00,
2013-03-02 17:10:00,29.3,17.9,30.23,NNW,338,1.1,4.0,62,0.00,,,0.00,WUHU216HW,2013-03-02 22:10:00,
2013-03-02 17:15:00,29.3,18.6,30.23,West,270,1.8,2.5,64,0.00,,,0.00,WUHU216HW,2013-03-02 22:15:00,
2013-03-02 17:20:00,29.5,18.8,30.23,WSW,248,1.8,2.7,64,0.00,,,0.00,WUHU216HW,2013-03-02 22:20:00,
2013-03-02 17:25:00,29.7,19.0,30.23,WSW,248,1.8,2.7,64,0.00,,,0.00,WUHU216HW,2013-03-02 22:25:00,
2013-03-02 17:30:00,29.7,19.0,30.23,WSW,248,2.5,3.4,64,0.00,,,0.00,WUHU216HW,2013-03-02 22:30:00,
2013-03-02 17:35:00,29.3,18.6,30.23,WSW,248,2.0,3.4,64,0.00,,,0.00,WUHU216HW,2013-03-02 22:35:00,
2013-03-02 17:40:00,29.3,18.6,30.23,SW,225,3.4,3.4,64,0.00,,,0.00,WUHU216HW,2013-03-02 22:40:00,
2013-03-02 17:45:00,29.2,18.8,30.23,SW,225,3.4,3.4,65,0.00,,,0.00,WUHU216HW,2013-03-02 22:45:00,
2013-03-02 17:50:00,29.0,18.6,30.23,SW,225,2.9,4.0,65,0.00,,,0.00,WUHU216HW,2013-03-02 22:50:00,
2013-03-02 17:55:00,29.0,18.6,30.23,SW,225,2.9,4.0,65,0.00,,,0.00,WUHU216HW,2013-03-02 22:55:00,
2013-03-02 18:00:00,28.8,18.9,30.23,SW,225,4.7,4.7,66,0.00,,,0.00,WUHU216HW,2013-03-02 23:00:00,
2013-03-02 18:05:00,28.6,18.7,30.22,SW,225,4.0,4.7,66,0.00,,,0.00,WUHU216HW,2013-03-02 23:05:00,
2013-03-02 18:10:00,28.3,18.4,30.22,SW,225,3.8,4.3,66,0.00,,,0.00,WUHU216HW,2013-03-02 23:10:00,
2013-03-02 18:15:00,27.9,18.0,30.23,SSW,203,2.2,4.0,66,0.00,,,0.00,WUHU216HW,2013-03-02 23:15:00,
2013-03-02 18:20:00,27.4,17.5,30.22,SW,225,1.6,3.4,66,0.00,,,0.00,WUHU216HW,2013-03-02 23:20:00,
2013-03-02 18:25:00,27.0,17.5,30.22,SW,225,2.7,2.9,67,0.00,,,0.00,WUHU216HW,2013-03-02 23:25:00,
2013-03-02 18:30:00,26.5,16.9,30.23,SSW,203,1.8,2.7,67,0.00,,,0.00,WUHU216HW,2013-03-02 23:30:00,
2013-03-02 18:35:00,26.1,16.9,30.22,SSW,203,2.0,2.5,68,0.00,,,0.00,WUHU216HW,2013-03-02 23:35:00,
2013-03-02 18:40:00,25.6,16.4,30.22,SSW,203,2.0,2.2,68,0.00,,,0.00,WUHU216HW,2013-03-02 23:40:00,
2013-03-02 18:45:00,25.0,16.2,30.22,SSW,203,2.7,3.4,69,0.00,,,0.00,WUHU216HW,2013-03-02 23:45:00,
2013-03-02 18:50:00,24.8,15.7,30.22,SW,225,1.8,3.4,68,0.00,,,0.00,WUHU216HW,2013-03-02 23:50:00,
2013-03-02 18:55:00,24.5,15.8,30.22,SW,225,2.5,3.4,69,0.00,,,0.00,WUHU216HW,2013-03-02 23:55:00,
2013-03-02 19:00:00,24.5,15.8,30.22,SW,225,2.2,3.4,69,0.00,,,0.00,WUHU216HW,2013-03-03 00:00:00,
2013-03-02 19:05:00,24.3,15.6,30.22,SW,225,2.0,3.4,69,0.00,,,0.00,WUHU216HW,2013-03-03 00:05:00,
2013-03-02 19:10:00,24.3,15.6,30.22,SW,225,2.0,2.0,69,0.00,,,0.00,WUHU216HW,2013-03-03 00:10:00,
2013-03-02 19:37:00,24.1,16.4,30.22,SW,225,2.7,4.5,72,0.00,,,0.00,WUHU216HW,2013-03-03 00:37:00,
2013-03-02 19:42:00,24.1,16.4,30.22,SW,225,3.4,4.5,72,0.00,,,0.00,WUHU216HW,2013-03-03 00:42:00,
2013-03-02 19:47:00,23.9,16.2,30.22,SW,225,1.8,3.4,72,0.00,,,0.00,WUHU216HW,2013-03-03 00:47:00,
2013-03-02 19:52:00,24.1,16.4,30.22,SSW,203,1.8,2.7,72,0.00,,,0.00,WUHU216HW,2013-03-03 00:52:00,
2013-03-02 19:57:00,23.9,16.2,30.22,SSE,158,1.1,2.5,72,0.00,,,0.00,WUHU216HW,2013-03-03 00:57:00,
2013-03-02 20:02:00,23.9,16.2,30.22,NNE,23,0.0,1.3,72,0.00,,,0.00,WUHU216HW,2013-03-03 01:02:00,
2013-03-02 20:07:00,23.8,16.4,30.22,SSW,203,0.2,1.1,73,0.00,,,0.00,WUHU216HW,2013-03-03 01:07:00,
2013-03-02 20:12:00,23.6,16.2,30.22,SSW,203,0.0,0.9,73,0.00,,,0.00,WUHU216HW,2013-03-03 01:12:00,
2013-03-02 20:17:00,23.4,16.0,30.23,SSE,158,0.0,0.4,73,0.00,,,0.00,WUHU216HW,2013-03-03 01:17:00,
2013-03-02 20:22:00,23.4,16.3,30.23,North,0,3.6,3.6,74,0.00,,,0.00,WUHU216HW,2013-03-03 01:22:00,
2013-03-02 20:27:00,23.8,16.7,30.23,NNW,338,1.1,3.8,74,0.00,,,0.00,WUHU216HW,2013-03-03 01:27:00,
2013-03-02 20:32:00,23.8,16.7,30.23,NNW,338,2.2,3.8,74,0.00,,,0.00,WUHU216HW,2013-03-03 01:32:00,
2013-03-02 20:37:00,23.8,16.7,30.23,NNW,338,2.0,2.9,74,0.00,,,0.00,WUHU216HW,2013-03-03 01:37:00,
2013-03-02 20:42:00,23.8,16.7,30.23,NW,315,2.0,2.9,74,0.00,,,0.00,WUHU216HW,2013-03-03 01:42:00,
2013-03-02 20:47:00,23.4,16.7,30.23,NW,315,4.9,4.9,75,0.00,,,0.00,WUHU216HW,2013-03-03 01:47:00,
2013-03-02 20:52:00,23.6,17.1,30.24,NNW,338,5.8,8.5,76,0.00,,,0.00,WUHU216HW,2013-03-03 01:52:00,
2013-03-02 20:57:00,24.1,17.3,30.23,NNW,338,4.7,9.8,75,0.00,,,0.00,WUHU216HW,2013-03-03 01:57:00,
2013-03-02 21:02:00,24.3,17.5,30.24,NW,315,3.6,9.8,75,0.00,,,0.00,WUHU216HW,2013-03-03 02:02:00,
2013-03-02 21:07:00,23.9,17.1,30.24,NW,315,4.0,7.4,75,0.00,,,0.00,WUHU216HW,2013-03-03 02:07:00,
2013-03-02 21:12:00,23.6,17.1,30.24,NNW,338,6.3,8.5,76,0.00,,,0.00,WUHU216HW,2013-03-03 02:12:00,
2013-03-02 21:17:00,23.8,17.0,30.24,NNW,338,7.6,8.9,75,0.00,,,0.00,WUHU216HW,2013-03-03 02:17:00,
2013-03-02 21:22:00,23.8,17.0,30.24,NNW,338,6.3,11.0,75,0.00,,,0.00,WUHU216HW,2013-03-03 02:22:00,
2013-03-02 21:27:00,23.8,17.0,30.25,NW,315,6.9,11.0,75,0.00,,,0.00,WUHU216HW,2013-03-03 02:27:00,
2013-03-02 21:32:00,23.8,17.0,30.25,NNW,338,8.9,8.9,75,0.00,,,0.00,WUHU216HW,2013-03-03 02:32:00,
2013-03-02 21:37:00,23.6,16.8,30.25,NNW,338,9.8,11.9,75,0.00,,,0.00,WUHU216HW,2013-03-03 02:37:00,
2013-03-02 21:42:00,23.4,16.9,30.25,North,0,3.8,11.9,76,0.00,,,0.00,WUHU216HW,2013-03-03 02:42:00,
2013-03-02 21:47:00,23.4,16.9,30.25,WNW,293,8.7,8.7,76,0.00,,,0.00,WUHU216HW,2013-03-03 02:47:00,
2013-03-02 21:52:00,23.2,16.7,30.25,NNW,338,8.5,9.2,76,0.00,,,0.00,WUHU216HW,2013-03-03 02:52:00,
2013-03-02 21:57:00,23.2,16.7,30.25,North,0,6.0,9.2,76,0.00,,,0.00,WUHU216HW,2013-03-03 02:57:00,
2013-03-02 22:02:00,23.0,16.9,30.25,NNW,338,4.7,8.9,77,0.00,,,0.00,WUHU216HW,2013-03-03 03:02:00,
2013-03-02 22:07:00,23.0,16.9,30.25,North,0,5.8,8.9,77,0.00,,,0.00,WUHU216HW,2013-03-03 03:07:00,
2013-03-02 22:12:00,22.9,16.8,30.25,North,0,6.3,7.6,77,0.00,,,0.00,WUHU216HW,2013-03-03 03:12:00,
2013-03-02 22:17:00,22.7,16.6,30.25,NNW,338,5.8,9.8,77,0.00,,,0.00,WUHU216HW,2013-03-03 03:17:00,
2013-03-02 22:22:00,22.7,16.6,30.25,NNW,338,8.3,9.8,77,0.00,,,0.00,WUHU216HW,2013-03-03 03:22:00,
2013-03-02 22:27:00,22.7,16.6,30.25,North,0,5.8,8.3,77,0.00,,,0.00,WUHU216HW,2013-03-03 03:27:00,
2013-03-02 22:32:00,22.5,16.4,30.24,NNW,338,6.9,7.2,77,0.00,,,0.00,WUHU216HW,2013-03-03 03:32:00,
2013-03-02 22:37:00,22.3,16.2,30.24,North,0,2.9,7.2,77,0.00,,,0.00,WUHU216HW,2013-03-03 03:37:00,
2013-03-02 22:42:00,22.1,16.0,30.24,North,0,4.3,5.4,77,0.00,,,0.00,WUHU216HW,2013-03-03 03:42:00,
2013-03-02 22:47:00,22.1,16.0,30.24,North,0,5.6,6.3,77,0.00,,,0.00,WUHU216HW,2013-03-03 03:47:00,
2013-03-02 22:52:00,22.0,15.9,30.24,North,0,6.9,6.9,77,0.00,,,0.00,WUHU216HW,2013-03-03 03:52:00,
2013-03-02 22:57:00,22.0,15.9,30.24,North,0,4.5,6.9,77,0.00,,,0.00,WUHU216HW,2013-03-03 03:57:00,
2013-03-02 23:02:00,21.8,15.7,30.24,North,0,4.7,6.7,77,0.00,,,0.00,WUHU216HW,2013-03-03 04:02:00,
2013-03-02 23:07:00,21.6,15.5,30.24,NNW,338,5.6,6.7,77,0.00,,,0.00,WUHU216HW,2013-03-03 04:07:00,
2013-03-02 23:12:00,21.6,15.5,30.25,NNW,338,4.3,5.6,77,0.00,,,0.00,WUHU216HW,2013-03-03 04:12:00,
2013-03-02 23:17:00,21.6,15.5,30.25,NNW,338,3.8,4.5,77,0.00,,,0.00,WUHU216HW,2013-03-03 04:17:00,
2013-03-02 23:22:00,21.2,15.1,30.25,NNW,338,4.0,4.0,77,0.00,,,0.00,WUHU216HW,2013-03-03 04:22:00,
2013-03-02 23:27:00,21.2,15.4,30.25,NNW,338,3.6,4.5,78,0.00,,,0.00,WUHU216HW,2013-03-03 04:27:00,
2013-03-02 23:32:00,21.1,15.2,30.24,NNW,338,2.7,4.5,78,0.00,,,0.00,WUHU216HW,2013-03-03 04:32:00,
2013-03-02 23:37:00,20.9,15.0,30.25,NNW,338,3.1,4.0,78,0.00,,,0.00,WUHU216HW,2013-03-03 04:37:00,
2013-03-02 23:42:00,20.7,14.9,30.25,NNW,338,2.2,3.8,78,0.00,,,0.00,WUHU216HW,2013-03-03 04:42:00,
2013-03-02 23:47:00,20.5,14.7,30.25,NNW,338,2.2,3.8,78,0.00,,,0.00,WUHU216HW,2013-03-03 04:47:00,
2013-03-02 23:52:00,20.3,14.5,30.24,NNW,338,2.0,2.5,78,0.00,,,0.00,WUHU216HW,2013-03-03 04:52:00,
2013-03-02 23:57:00,20.2,14.3,30.25,North,0,2.0,2.2,78,0.00,,,0.00,WUHU216HW,2013-03-03 04:57:00,